createdAt,value
2023-04-23T00:00:05.226Z,30.50
2023-04-23T00:05:16.447Z,31.33
2023-04-23T00:10:19.469Z,31.48
2023-04-23T00:15:23.745Z,32.92
2023-04-23T00:20:26.508Z,36.08
2023-04-23T00:25:29.286Z,38.17
2023-04-23T00:30:33.639Z,37.50
2023-04-23T00:35:36.381Z,43.63
2023-04-23T00:40:39.319Z,43.38
2023-04-23T00:45:43.681Z,42.40
2023-04-23T00:50:47.562Z,41.20
2023-04-23T00:55:50.457Z,42.17
2023-04-23T01:00:55.009Z,43.53
2023-04-23T01:05:58.212Z,44.63
2023-04-23T01:11:01.537Z,44.63
2023-04-23T01:16:05.886Z,44.30
2023-04-23T01:21:11.581Z,41.17
2023-04-23T01:26:15.883Z,45.42
2023-04-23T01:31:19.733Z,43.30
2023-04-23T01:36:23.663Z,46.28
2023-04-23T01:41:29.509Z,53.70
2023-04-23T01:46:32.982Z,51.58
2023-04-23T01:51:36.341Z,53.53
2023-04-23T01:56:40.547Z,51.80
2023-04-23T02:01:45.751Z,55.28
2023-04-23T02:06:51.016Z,52.92
2023-04-23T02:11:55.269Z,54.50
2023-04-23T02:16:58.707Z,53.55
2023-04-23T02:22:01.715Z,54.35
2023-04-23T02:27:05.956Z,52.65
2023-04-23T02:32:08.746Z,51.58
2023-04-23T02:37:12.347Z,52.50
2023-04-23T02:42:16.740Z,54.45
2023-04-23T02:47:19.592Z,58.95
2023-04-23T02:52:22.438Z,50.53
2023-04-23T02:57:26.725Z,54.15
2023-04-23T03:02:29.813Z,50.30
2023-04-23T03:07:32.962Z,54.13
2023-04-23T03:12:37.164Z,50.13
2023-04-23T03:17:40.174Z,49.53
2023-04-23T03:22:43.076Z,49.17
2023-04-23T03:27:47.348Z,55.42
2023-04-23T03:32:51.610Z,55.28
2023-04-23T03:37:54.798Z,56.38
2023-04-23T03:43:00.952Z,61.20
2023-04-23T03:48:21.565Z,62.10
2023-04-23T03:53:24.516Z,59.28
2023-04-23T03:58:47.038Z,62.42
2023-04-23T04:03:50.023Z,64.57
2023-04-23T04:08:53.036Z,65.13
2023-04-23T04:13:57.234Z,59.95
2023-04-23T04:19:01.423Z,62.40
2023-04-23T04:24:04.852Z,64.53
2023-04-23T04:29:09.313Z,61.17
2023-04-23T04:34:14.648Z,63.40
2023-04-23T04:39:17.418Z,65.22
2023-04-23T04:44:21.526Z,68.93
2023-04-23T04:49:24.378Z,65.85
2023-04-23T04:54:27.252Z,64.95
2023-04-23T04:59:31.409Z,67.20
2023-04-23T05:04:34.284Z,60.63
2023-04-23T05:09:37.059Z,65.85
2023-04-23T05:14:41.329Z,64.80
2023-04-23T05:19:44.228Z,68.50
2023-04-23T05:24:47.150Z,66.55
2023-04-23T05:29:51.287Z,68.80
2023-04-23T05:34:54.136Z,70.93
2023-04-23T05:39:57.477Z,72.38
2023-04-23T05:45:01.605Z,75.63
2023-04-23T05:50:04.588Z,74.47
2023-04-23T05:55:08.297Z,95.43
2023-04-23T06:00:14.105Z,77.78
2023-04-23T06:05:17.047Z,72.45
2023-04-23T06:10:20.205Z,78.85
2023-04-23T06:15:27.056Z,71.65
2023-04-23T06:20:30.704Z,60.53
2023-04-23T06:25:33.535Z,56.95
2023-04-23T06:30:37.704Z,58.88
2023-04-23T06:35:40.736Z,59.17
2023-04-23T06:40:43.587Z,54.78
2023-04-23T06:45:47.790Z,53.95
2023-04-23T06:50:50.982Z,53.08
2023-04-23T06:55:53.787Z,55.03
2023-04-23T07:00:59.861Z,50.97
2023-04-23T07:06:05.202Z,49.72
2023-04-23T07:11:08.431Z,40.85
2023-04-23T07:16:13.760Z,37.30
2023-04-23T07:21:16.634Z,35.70
2023-04-23T07:26:19.461Z,35.60
2023-04-23T07:31:23.878Z,34.60
2023-04-23T07:36:27.739Z,32.38
2023-04-23T07:41:30.787Z,27.73
2023-04-23T07:46:34.963Z,27.17
2023-04-23T07:51:37.802Z,21.90
2023-04-23T07:56:42.716Z,14.55
2023-04-23T08:01:47.899Z,18.35
2023-04-23T08:06:51.020Z,19.00
2023-04-23T08:11:54.552Z,17.65
2023-04-23T08:16:58.838Z,15.68
2023-04-23T08:22:01.809Z,11.50
2023-04-23T08:27:04.784Z,12.23
2023-04-23T08:32:08.953Z,13.80
2023-04-23T08:37:23.221Z,11.35
2023-04-23T08:42:39.588Z,12.20
2023-04-23T08:47:44.376Z,12.50
2023-04-23T08:52:50.880Z,14.48
2023-04-23T08:57:54.096Z,14.02
2023-04-23T09:02:59.794Z,14.93
2023-04-23T09:08:02.904Z,17.35
2023-04-23T09:13:06.052Z,15.23
2023-04-23T09:18:10.795Z,16.05
2023-04-23T09:23:16.136Z,16.40
2023-04-23T09:28:19.006Z,16.38
2023-04-23T09:33:23.368Z,14.85
2023-04-23T09:38:26.740Z,12.93
2023-04-23T09:43:31.746Z,10.00
2023-04-23T09:48:43.251Z,11.30
2023-04-23T09:53:46.485Z,10.27
2023-04-23T09:58:49.446Z,8.73
2023-04-23T10:03:54.589Z,10.07
2023-04-23T10:08:58.123Z,9.00
2023-04-23T10:14:01.734Z,7.97
2023-04-23T10:19:08.896Z,7.07
2023-04-23T10:24:12.506Z,8.05
2023-04-23T10:29:17.284Z,7.80
2023-04-23T10:34:22.029Z,8.93
2023-04-23T10:39:30.044Z,7.30
2023-04-23T10:44:56.504Z,9.13
2023-04-23T10:49:58.836Z,5.75
2023-04-23T10:55:02.002Z,6.30
2023-04-23T11:00:06.118Z,5.70
2023-04-23T11:05:10.603Z,4.97
2023-04-23T11:10:14.651Z,7.28
2023-04-23T11:15:21.192Z,7.32
2023-04-23T11:20:25.380Z,5.00
2023-04-23T11:25:30.334Z,5.15
2023-04-23T11:30:33.667Z,5.93
2023-04-23T11:35:40.813Z,3.78
2023-04-23T11:40:48.490Z,3.85
2023-04-23T11:45:51.342Z,2.85
2023-04-23T11:50:55.784Z,2.72
2023-04-23T11:55:59.571Z,2.78
2023-04-23T12:01:02.502Z,2.60
2023-04-23T12:06:07.782Z,5.95
2023-04-23T12:11:13.070Z,4.40
2023-04-23T12:16:15.894Z,3.13
2023-04-23T12:21:20.170Z,3.90
2023-04-23T12:26:24.945Z,1.88
2023-04-23T12:31:29.651Z,4.53
2023-04-23T12:36:34.855Z,2.58
2023-04-23T12:41:37.861Z,1.60
2023-04-23T12:46:40.751Z,1.90
2023-04-23T12:51:45.267Z,5.15
2023-04-23T12:56:48.118Z,1.38
2023-04-23T13:01:51.603Z,1.45
2023-04-23T13:06:56.594Z,1.30
2023-04-23T13:12:00.144Z,3.08
2023-04-23T13:17:03.488Z,1.50
2023-04-23T13:22:08.071Z,1.95
2023-04-23T13:27:11.216Z,4.00
2023-04-23T13:32:14.546Z,2.45
2023-04-23T13:37:18.750Z,5.40
2023-04-23T13:42:21.566Z,1.92
2023-04-23T13:47:25.101Z,2.00
2023-04-23T13:52:29.314Z,1.50
2023-04-23T13:57:32.198Z,1.00
2023-04-23T14:02:35.367Z,2.28
2023-04-23T14:07:39.810Z,2.40
2023-04-23T14:12:42.685Z,1.55
2023-04-23T14:17:45.940Z,1.10
2023-04-23T14:22:56.250Z,1.20
2023-04-23T14:28:04.984Z,1.00
2023-04-23T14:33:07.924Z,1.90
2023-04-23T14:38:12.265Z,3.97
2023-04-23T14:43:16.150Z,1.70
2023-04-23T14:48:19.317Z,2.25
2023-04-23T14:53:23.484Z,1.05
2023-04-23T14:58:26.412Z,2.17
2023-04-23T15:03:29.395Z,4.60
2023-04-23T15:08:33.715Z,2.30
2023-04-23T15:13:45.338Z,2.83
2023-04-23T15:18:48.099Z,3.03
2023-04-23T15:23:53.720Z,2.85
2023-04-23T15:28:58.156Z,2.67
2023-04-23T15:34:01.069Z,2.63
2023-04-23T15:39:05.902Z,2.63
2023-04-23T15:44:12.099Z,4.55
2023-04-23T15:49:15.126Z,3.47
2023-04-23T15:54:19.271Z,11.52
2023-04-23T15:59:22.060Z,2.78
2023-04-23T16:04:25.083Z,4.63
2023-04-23T16:09:29.419Z,5.88
2023-04-23T16:14:32.479Z,6.38
2023-04-23T16:19:35.383Z,4.93
2023-04-23T16:24:39.510Z,5.07
2023-04-23T16:29:42.658Z,4.63
2023-04-23T16:34:45.624Z,7.85
2023-04-23T16:39:49.784Z,3.33
2023-04-23T16:44:52.596Z,4.30
2023-04-23T16:49:55.489Z,5.60
2023-04-23T16:54:59.692Z,6.63
2023-04-23T17:00:05.011Z,5.72
2023-04-23T17:05:09.217Z,2.63
2023-04-23T17:10:15.336Z,3.95
2023-04-23T17:15:18.346Z,3.13
2023-04-23T17:20:22.032Z,4.32
2023-04-23T17:25:26.235Z,6.15
2023-04-23T17:30:29.333Z,3.35
2023-04-23T17:35:32.132Z,4.25
2023-04-23T17:40:37.446Z,3.15
2023-04-23T17:45:41.156Z,6.43
2023-04-23T17:50:44.806Z,4.90
2023-04-23T17:55:49.012Z,3.40
2023-04-23T18:00:51.891Z,3.20
2023-04-23T18:05:54.989Z,7.00
2023-04-23T18:10:59.202Z,5.00
2023-04-23T18:16:02.081Z,4.60
2023-04-23T18:21:05.835Z,4.03
2023-04-23T18:26:10.240Z,5.47
2023-04-23T18:31:13.449Z,4.63
2023-04-23T18:36:25.006Z,7.53
2023-04-23T18:41:30.121Z,5.60
2023-04-23T18:46:33.172Z,5.30
2023-04-23T18:51:39.681Z,7.55
2023-04-23T18:56:43.861Z,5.72
2023-04-23T19:01:47.991Z,7.03
2023-04-23T19:06:50.824Z,6.93
2023-04-23T19:11:55.411Z,8.57
2023-04-23T19:16:58.301Z,9.60
2023-04-23T19:22:03.349Z,9.38
2023-04-23T19:27:07.797Z,10.35
2023-04-23T19:32:10.713Z,4.03
2023-04-23T19:37:13.643Z,4.82
2023-04-23T19:42:18.291Z,6.25
2023-04-23T19:47:21.178Z,5.50
2023-04-23T19:52:26.802Z,5.05
2023-04-23T19:57:31.108Z,4.85
2023-04-23T20:02:34.095Z,7.32
2023-04-23T20:07:37.194Z,9.40
2023-04-23T20:12:41.625Z,6.80
2023-04-23T20:17:44.422Z,8.70
2023-04-23T20:22:47.279Z,6.22
2023-04-23T20:27:51.922Z,5.38
2023-04-23T20:32:54.812Z,4.00
2023-04-23T20:37:57.791Z,5.97
2023-04-23T20:43:01.969Z,5.32
2023-04-23T20:48:05.466Z,5.05
2023-04-23T20:53:08.600Z,2.95
2023-04-23T20:58:13.353Z,3.28
2023-04-23T21:03:16.626Z,2.95
2023-04-23T21:08:19.923Z,2.17
2023-04-23T21:13:24.703Z,4.03
2023-04-23T21:18:27.920Z,2.80
2023-04-23T21:23:31.143Z,4.18
2023-04-23T21:28:37.015Z,4.57
2023-04-23T21:33:40.050Z,2.50
2023-04-23T21:38:43.270Z,1.95
2023-04-23T21:43:47.452Z,5.80
2023-04-23T21:48:53.464Z,2.42
2023-04-23T21:53:56.304Z,2.92
2023-04-23T21:59:00.514Z,3.65
2023-04-23T22:04:04.191Z,2.10
2023-04-23T22:09:07.379Z,4.65
2023-04-23T22:14:11.636Z,2.85
2023-04-23T22:19:16.054Z,1.65
2023-04-23T22:24:18.824Z,1.73
2023-04-23T22:29:23.082Z,1.10
2023-04-23T22:34:25.967Z,1.83
2023-04-23T22:39:28.801Z,1.67
2023-04-23T22:44:32.909Z,1.83
2023-04-23T22:49:35.944Z,1.48
2023-04-23T22:54:39.064Z,4.80
2023-04-23T22:59:43.576Z,2.13
2023-04-23T23:04:46.766Z,1.60
2023-04-23T23:09:50.129Z,1.10
2023-04-23T23:14:54.286Z,1.80
2023-04-23T23:19:57.118Z,0.77
2023-04-23T23:25:00.170Z,0.70
2023-04-23T23:30:05.835Z,2.60
2023-04-23T23:35:09.291Z,0.57
2023-04-23T23:40:12.690Z,3.20
2023-04-23T23:45:17.068Z,0.60
2023-04-23T23:50:20.074Z,0.70
2023-04-23T23:55:22.830Z,0.43
